Stitzer, Wisconsin
Current Conditions -  °F | °C
As of 9:53 AM on Saturday 25 Oct 2014 (Local Time) from KOVS Reporting Station
Clear Clear  
Wind Chill: 59°   Ceiling: Unl
Heat Index: 59°   Visibility: 10mi
Dew Point: 47°   Wind: 3mph
Humidity: 64%   Direction: 260°W
Pressure: 30.01"   Gusts: NA
Location:  42.93°N, 90.62°W
Report Text: KOVS 251453Z AUTO 26003KT 10SM CLR 15/08 A3001 RMK AO2 SLP163 T01500083 51018
Loading
Personal Weather Stations






























Interactive Weather Map
Tropical Storm Tracking
New forecast layout! Learn more

10-Day Weather Forecast

Advertisements
Track Severe Weather on mobile